Time;durP1;ratioP1;P1;durP2;ratioP2;P2;SDS_P1;SDS_P2;PMS_P1;PMS_P2;Temp;Humidity;BMP_temperature;BMP_pressure;BME280_temperature;BME280_humidity;BME280_pressure;Samples;Min_cycle;Max_cycle;Signal;HPM_P1;HPM_P2
2022/01/21 00:03:14;;;;;;;7.77;3.13;;;;;;;4.91;54.51;98907.75;8454744;28;20426;-68
2022/01/21 00:07:18;;;;;;;9.20;3.17;;;;;;;4.88;55.02;98913.75;8448741;28;20417;-69
2022/01/21 00:11:22;;;;;;;9.67;2.83;;;;;;;4.49;56.94;98922.53;8448274;28;20226;-69
2022/01/21 00:15:25;;;;;;;6.90;2.33;;;;;;;4.63;56.68;98928.44;8448402;28;20230;-69
2022/01/21 00:19:36;;;;;;;7.47;2.70;;;;;;;4.62;57.46;98931.03;8448384;28;20223;-69
2022/01/21 00:32:21;;;;;;;3.27;1.20;;;;;;;3.77;58.47;98949.25;8447948;28;20230;-69
2022/01/21 00:36:24;;;;;;;5.10;1.70;;;;;;;3.22;60.07;98956.91;8447895;28;20230;-69
2022/01/21 00:40:30;;;;;;;5.07;1.30;;;;;;;3.30;59.42;98953.50;8448188;28;20230;-69
2022/01/21 00:44:33;;;;;;;7.47;1.70;;;;;;;3.00;59.85;98958.59;8447322;28;20260;-69
2022/01/21 00:48:36;;;;;;;6.30;1.73;;;;;;;3.00;60.84;98948.34;8454198;28;20225;-70
2022/01/21 00:52:39;;;;;;;5.13;1.60;;;;;;;3.14;59.41;98938.97;8481379;28;20233;-69
2022/01/21 00:56:44;;;;;;;5.93;1.60;;;;;;;3.42;57.88;98941.56;8481471;28;20233;-69
2022/01/21 01:00:47;;;;;;;8.23;1.87;;;;;;;3.40;56.39;98956.94;8481250;28;20229;-68
2022/01/21 01:04:50;;;;;;;4.90;1.57;;;;;;;3.70;55.25;98960.34;8481098;28;20427;-69
2022/01/21 01:08:54;;;;;;;6.33;1.60;;;;;;;3.56;55.95;98969.72;8481488;28;20217;-69
2022/01/21 01:19:51;;;;;;;6.00;1.50;;;;;;;3.66;55.27;98974.00;8481536;28;20415;-69
2022/01/21 01:21:45;;;;;;;2.30;1.13;;;;;;;3.82;56.45;98983.38;8474187;28;20222;-69
2022/01/21 01:30:13;;;;;;;5.40;1.50;;;;;;;4.34;55.80;98999.53;8481516;28;20231;-69
2022/01/21 01:34:16;;;;;;;6.57;1.50;;;;;;;4.14;57.45;99003.00;8481000;28;20225;-69
2022/01/21 01:38:43;;;;;;;6.07;1.93;;;;;;;3.67;59.25;98994.47;8481357;28;20222;-69
2022/01/21 01:51:29;;;;;;;4.90;1.67;;;;;;;4.39;57.07;99011.47;8482043;28;20229;-69
2022/01/21 01:55:32;;;;;;;7.53;2.40;;;;;;;4.28;56.99;99005.53;8481348;28;20234;-69
2022/01/21 01:59:35;;;;;;;8.47;2.60;;;;;;;4.55;56.24;99008.88;8480328;28;20557;-69
2022/01/21 02:03:39;;;;;;;7.27;2.47;;;;;;;4.50;56.02;99012.31;8480321;28;20234;-70
2022/01/21 02:07:42;;;;;;;7.83;2.67;;;;;;;4.65;55.77;99023.38;8479988;28;20271;-69
2022/01/21 02:11:46;;;;;;;7.57;1.97;;;;;;;4.63;55.09;99012.28;8484357;28;20236;-69
2022/01/21 02:16:07;;;;;;;6.20;2.20;;;;;;;4.60;54.55;99010.56;8486554;28;20240;-69
2022/01/21 02:24:49;;;;;;;7.40;2.23;;;;;;;4.54;54.66;99004.59;8476977;27;20225;-69
2022/01/21 02:28:53;;;;;;;11.37;2.83;;;;;;;4.31;54.25;99002.97;8485978;27;20234;-69
2022/01/21 02:32:59;;;;;;;8.77;2.10;;;;;;;4.28;54.29;99003.84;8485790;27;20229;-69
2022/01/21 02:37:03;;;;;;;8.53;2.57;;;;;;;4.00;54.55;99014.97;8485692;28;20239;-69
2022/01/21 02:41:07;;;;;;;7.97;2.43;;;;;;;4.09;54.17;99020.97;8485760;27;20248;-69
2022/01/21 02:45:13;;;;;;;5.97;2.37;;;;;;;4.03;54.05;99027.78;8485785;28;20252;-69
2022/01/21 02:49:16;;;;;;;10.57;2.70;;;;;;;4.01;54.35;99037.19;8485378;28;20232;-69
2022/01/21 02:53:27;;;;;;;8.10;2.50;;;;;;;4.09;53.81;99046.59;8485377;28;20226;-69
2022/01/21 02:57:32;;;;;;;11.43;3.53;;;;;;;4.28;52.81;99044.00;8485515;28;20229;-69
2022/01/21 03:01:35;;;;;;;7.17;2.43;;;;;;;4.11;52.64;99037.19;8484922;27;20230;-69
2022/01/21 03:05:39;;;;;;;5.63;2.00;;;;;;;4.22;52.50;99038.88;8485153;28;20378;-70
2022/01/21 03:09:42;;;;;;;10.83;2.53;;;;;;;4.15;52.43;99043.19;8484343;27;20235;-69
2022/01/21 03:13:46;;;;;;;6.90;2.50;;;;;;;4.21;52.24;99055.97;8484459;28;20230;-69
2022/01/21 03:17:49;;;;;;;8.53;2.30;;;;;;;4.06;52.30;99048.31;8484141;28;20230;-69
2022/01/21 03:21:52;;;;;;;8.50;2.40;;;;;;;4.14;52.41;99048.31;8483532;27;20240;-69
2022/01/21 03:25:55;;;;;;;9.50;2.17;;;;;;;4.06;51.90;99044.03;8484003;28;20256;-69
2022/01/21 03:30:02;;;;;;;7.60;2.03;;;;;;;3.89;52.13;99044.03;8483630;28;20230;-69
2022/01/21 03:34:05;;;;;;;6.70;2.07;;;;;;;3.97;51.71;99061.13;8483855;28;20423;-69
2022/01/21 03:38:08;;;;;;;8.17;2.27;;;;;;;3.97;51.44;99069.66;8483142;28;20236;-69
2022/01/21 03:42:12;;;;;;;8.77;2.83;;;;;;;4.00;51.34;99066.22;8483554;28;20239;-69
2022/01/21 03:46:17;;;;;;;9.07;2.30;;;;;;;3.91;50.96;99065.38;8483027;28;20237;-69
2022/01/21 03:50:23;;;;;;;7.37;2.43;;;;;;;3.83;50.97;99077.34;8483207;28;20233;-69
2022/01/21 03:54:26;;;;;;;8.23;2.43;;;;;;;3.75;50.94;99091.00;8482947;28;20225;-69
2022/01/21 03:58:29;;;;;;;7.83;2.43;;;;;;;3.78;51.01;99096.13;8482799;27;20232;-69
2022/01/21 04:02:33;;;;;;;7.13;2.40;;;;;;;3.71;50.75;99090.13;8482306;27;20521;-69
2022/01/21 04:06:36;;;;;;;12.63;3.20;;;;;;;3.56;51.41;99085.88;8482212;28;20234;-69
2022/01/21 04:10:41;;;;;;;8.07;2.73;;;;;;;3.53;51.38;99083.28;8482403;28;20229;-69
2022/01/21 04:14:44;;;;;;;10.13;3.47;;;;;;;3.56;51.56;99087.56;8482052;28;20241;-69
2022/01/21 04:18:49;;;;;;;10.63;2.73;;;;;;;3.50;51.25;99088.41;8482104;28;20237;-69
2022/01/21 04:22:53;;;;;;;9.23;2.57;;;;;;;3.42;51.24;99090.09;8482264;28;20229;-69
2022/01/21 04:26:59;;;;;;;6.17;2.40;;;;;;;3.33;51.03;99099.47;8481822;28;20233;-69
2022/01/21 04:31:02;;;;;;;9.47;2.70;;;;;;;3.39;50.64;99106.31;8481837;28;20230;-68
2022/01/21 04:35:07;;;;;;;8.53;3.10;;;;;;;3.44;51.04;99106.31;8481197;28;20240;-69
2022/01/21 04:39:16;;;;;;;7.40;2.63;;;;;;;3.35;51.08;99111.41;8482482;28;20225;-69
2022/01/21 04:47:40;;;;;;;7.33;2.70;;;;;;;3.40;50.61;99109.72;8473869;28;20544;-69
2022/01/21 04:52:02;;;;;;;7.87;3.23;;;;;;;3.32;50.63;99117.38;8480987;27;20240;-69
2022/01/21 04:56:06;;;;;;;8.17;2.97;;;;;;;3.13;50.32;99129.25;8481119;28;20397;-69
2022/01/21 05:00:10;;;;;;;7.33;2.67;;;;;;;3.03;51.31;99136.06;8481175;28;20222;-69
2022/01/21 05:04:13;;;;;;;8.10;2.93;;;;;;;3.02;50.55;99126.66;8480904;28;20229;-69
2022/01/21 05:08:25;;;;;;;10.20;3.33;;;;;;;3.05;50.80;99133.50;8480899;28;20237;-68
2022/01/21 05:12:29;;;;;;;9.03;3.40;;;;;;;3.07;50.82;99137.78;8481073;28;20225;-69
2022/01/21 05:16:36;;;;;;;10.47;3.30;;;;;;;3.04;50.32;99142.00;8480433;28;20229;-69
2022/01/21 05:20:39;;;;;;;7.93;2.73;;;;;;;2.99;50.91;99133.44;8480866;28;20433;-69
2022/01/21 05:24:43;;;;;;;10.13;2.90;;;;;;;3.09;50.81;99148.03;8480955;28;20550;-69
2022/01/21 05:28:46;;;;;;;9.33;2.73;;;;;;;3.10;50.58;99148.03;8480934;28;20244;-68
2022/01/21 05:32:49;;;;;;;9.03;3.00;;;;;;;3.07;50.77;99154.84;8480703;28;20230;-69
2022/01/21 05:36:52;;;;;;;8.53;3.10;;;;;;;2.99;50.68;99157.38;8480604;28;20239;-68
2022/01/21 05:40:56;;;;;;;10.00;3.07;;;;;;;3.01;50.90;99148.00;8480650;28;20248;-69
2022/01/21 05:49:20;;;;;;;10.20;3.70;;;;;;;3.01;51.45;99142.00;8465641;28;20544;-69
2022/01/21 05:53:23;;;;;;;8.30;3.10;;;;;;;3.03;51.10;99150.56;8455239;28;20229;-69
2022/01/21 05:57:30;;;;;;;13.17;3.80;;;;;;;3.03;51.16;99155.69;8453085;28;20533;-69
2022/01/21 06:01:33;;;;;;;10.87;4.00;;;;;;;3.00;51.07;99161.63;8452028;28;20226;-69
2022/01/21 06:05:36;;;;;;;10.83;4.03;;;;;;;3.01;51.17;99165.03;8451884;28;20294;-70
2022/01/21 06:09:39;;;;;;;14.63;5.20;;;;;;;2.91;51.19;99185.47;8452332;28;20323;-69
2022/01/21 06:13:44;;;;;;;15.20;6.23;;;;;;;2.90;50.73;99185.44;8452973;28;20403;-69
2022/01/21 06:17:47;;;;;;;15.43;5.77;;;;;;;2.79;50.33;99198.16;8452000;28;20244;-69
2022/01/21 06:21:50;;;;;;;12.90;5.83;;;;;;;2.84;50.68;99178.59;8452371;28;20241;-68
2022/01/21 06:25:56;;;;;;;14.00;5.57;;;;;;;2.82;50.92;99190.53;8451859;28;20293;-68
2022/01/21 06:30:01;;;;;;;10.97;5.03;;;;;;;2.74;50.75;99202.38;8451444;28;20222;-69
2022/01/21 06:34:04;;;;;;;12.77;5.70;;;;;;;2.76;50.26;99208.41;8448345;28;20237;-69
2022/01/21 06:38:07;;;;;;;11.50;4.83;;;;;;;2.71;50.43;99218.59;8450849;28;20226;-68
2022/01/21 06:42:10;;;;;;;10.73;5.20;;;;;;;2.87;50.61;99216.13;8450578;28;20230;-68
2022/01/21 06:46:15;;;;;;;15.77;5.17;;;;;;;2.79;50.56;99215.22;8450388;28;20234;-68
2022/01/21 06:50:18;;;;;;;12.23;5.17;;;;;;;2.77;50.58;99215.22;8450179;28;20234;-67
2022/01/21 06:54:21;;;;;;;13.60;5.00;;;;;;;2.87;50.66;99208.44;8450617;28;20226;-68
2022/01/21 06:58:24;;;;;;;15.17;5.73;;;;;;;2.82;50.84;99217.78;8447455;28;20533;-69
2022/01/21 07:02:28;;;;;;;10.33;4.73;;;;;;;2.85;50.55;99223.78;8450421;28;20222;-68
2022/01/21 07:06:31;;;;;;;14.60;5.17;;;;;;;2.78;50.87;99222.06;8449638;28;20233;-69
2022/01/21 07:10:34;;;;;;;13.40;5.43;;;;;;;2.79;50.50;99215.22;8449913;28;20240;-69
2022/01/21 07:14:39;;;;;;;12.33;5.30;;;;;;;2.77;50.70;99212.66;8449512;28;20289;-69
2022/01/21 07:18:44;;;;;;;12.93;5.53;;;;;;;2.77;51.31;99212.66;8444496;28;20249;-69
2022/01/21 07:22:48;;;;;;;16.20;6.20;;;;;;;2.94;51.73;99212.78;8449145;28;20233;-69
2022/01/21 07:26:52;;;;;;;15.63;6.00;;;;;;;3.07;51.93;99206.03;8449323;28;20238;-68
2022/01/21 07:30:55;;;;;;;11.27;5.70;;;;;;;3.05;51.59;99210.28;8449322;28;20226;-68
2022/01/21 07:34:59;;;;;;;14.60;6.47;;;;;;;3.06;51.83;99206.88;8450128;28;20226;-68
2022/01/21 07:39:03;;;;;;;13.73;6.13;;;;;;;3.05;51.53;99193.22;8450093;28;20234;-69
2022/01/21 07:43:07;;;;;;;13.80;5.67;;;;;;;3.18;52.05;99195.81;8449678;28;20230;-68
2022/01/21 07:47:10;;;;;;;12.80;5.47;;;;;;;3.30;51.60;99193.34;8449907;28;20237;-68
2022/01/21 07:51:14;;;;;;;17.00;9.27;;;;;;;3.35;51.83;99201.91;8477683;28;20233;-69
2022/01/21 07:55:17;;;;;;;16.60;7.40;;;;;;;3.37;51.83;99192.53;8483206;27;20225;-68
2022/01/21 07:59:20;;;;;;;19.03;7.87;;;;;;;3.41;52.51;99195.94;8482611;28;20331;-68
2022/01/21 08:03:24;;;;;;;19.43;6.57;;;;;;;3.48;52.62;99200.22;8482422;28;20229;-68
2022/01/21 08:07:28;;;;;;;12.67;6.13;;;;;;;3.72;51.91;99202.03;8481378;28;20230;-68
2022/01/21 08:11:32;;;;;;;19.07;7.27;;;;;;;3.81;51.71;99191.81;8453482;28;20234;-69
2022/01/21 08:15:35;;;;;;;15.23;5.97;;;;;;;4.88;49.54;99190.13;8447079;28;20230;-69
2022/01/21 08:19:38;;;;;;;12.73;5.77;;;;;;;5.86;47.34;99179.50;8446910;28;20545;-69
2022/01/21 08:23:42;;;;;;;16.10;6.83;;;;;;;6.85;45.14;99184.75;8443960;28;20520;-69
2022/01/21 08:27:45;;;;;;;13.57;6.57;;;;;;;7.19;45.01;99184.38;8446506;28;20259;-69
2022/01/21 08:31:48;;;;;;;15.47;6.30;;;;;;;8.07;43.66;99182.38;8447182;28;20236;-69
2022/01/21 08:35:51;;;;;;;14.40;6.57;;;;;;;6.45;46.38;99197.97;8447148;28;20242;-69
2022/01/21 08:39:56;;;;;;;13.90;5.90;;;;;;;6.18;47.26;99191.28;8446981;28;20226;-69
2022/01/21 08:43:59;;;;;;;17.20;6.57;;;;;;;5.97;48.67;99191.44;8447042;28;20221;-69
2022/01/21 08:48:06;;;;;;;15.90;7.30;;;;;;;5.53;50.26;99198.50;8448251;28;20583;-69
2022/01/21 08:52:18;;;;;;;17.57;5.97;;;;;;;5.49;51.18;99202.78;8446491;28;20222;-69
2022/01/21 08:56:23;;;;;;;19.50;6.57;;;;;;;5.41;51.17;99196.00;8443997;28;20221;-69
2022/01/21 09:00:26;;;;;;;16.00;5.47;;;;;;;5.50;51.52;99195.94;8445796;28;20230;-69
2022/01/21 09:04:29;;;;;;;20.23;6.37;;;;;;;5.17;52.16;99202.06;8445426;28;20419;-69
2022/01/21 09:08:32;;;;;;;13.40;5.70;;;;;;;5.39;52.63;99210.56;8445286;28;20233;-69
2022/01/21 09:12:37;;;;;;;19.23;6.53;;;;;;;5.26;52.54;99213.16;8442695;28;20240;-70
2022/01/21 09:16:42;;;;;;;15.50;6.27;;;;;;;4.99;53.57;99220.91;8445661;28;20226;-69
2022/01/21 09:20:47;;;;;;;22.10;6.10;;;;;;;4.84;53.49;99219.25;8450083;28;20234;-69
2022/01/21 09:24:50;;;;;;;15.90;6.87;;;;;;;5.29;53.33;99220.84;8452385;28;20228;-69
2022/01/21 09:28:54;;;;;;;16.97;6.47;;;;;;;5.43;52.62;99225.09;8452397;28;20234;-68
2022/01/21 09:32:57;;;;;;;21.07;6.90;;;;;;;5.38;52.75;99222.53;8447082;28;20232;-69
2022/01/21 09:37:02;;;;;;;17.07;7.13;;;;;;;5.36;53.00;99221.69;8452910;28;20555;-69
2022/01/21 09:41:06;;;;;;;20.63;7.23;;;;;;;5.22;53.46;99216.59;8452144;28;20226;-68
2022/01/21 09:45:15;;;;;;;16.27;6.33;;;;;;;5.55;52.94;99216.47;8452057;28;20229;-69
2022/01/21 09:49:27;;;;;;;15.53;5.63;;;;;;;5.15;53.52;99217.47;8464581;28;20229;-69
2022/01/21 09:53:32;;;;;;;16.83;6.37;;;;;;;5.39;53.44;99213.13;8485921;27;20532;-69
2022/01/21 09:57:35;;;;;;;15.50;5.60;;;;;;;5.65;52.52;99213.00;8461100;28;20421;-69
2022/01/21 10:01:40;;;;;;;14.27;5.63;;;;;;;5.75;52.34;99214.69;8452054;28;20230;-69
2022/01/21 10:05:45;;;;;;;19.33;6.63;;;;;;;6.06;51.91;99222.25;8451599;28;20242;-70
2022/01/21 10:09:49;;;;;;;17.60;6.40;;;;;;;5.97;52.09;99222.31;8452120;28;20238;-69
2022/01/21 10:13:53;;;;;;;14.57;6.00;;;;;;;5.86;51.95;99220.63;8452445;28;20232;-70
2022/01/21 10:18:02;;;;;;;14.17;6.00;;;;;;;5.87;52.35;99224.88;8452456;28;20237;-68
2022/01/21 10:22:17;;;;;;;17.57;6.10;;;;;;;5.83;52.47;99224.94;8452408;28;20237;-69
2022/01/21 10:26:23;;;;;;;21.87;6.40;;;;;;;5.94;52.02;99214.56;8452088;28;20230;-70
2022/01/21 10:30:28;;;;;;;19.97;6.37;;;;;;;6.17;51.70;99207.63;8450949;28;20230;-69
2022/01/21 10:34:38;;;;;;;14.33;6.07;;;;;;;6.16;50.92;99208.47;8451415;28;20225;-69
2022/01/21 10:38:43;;;;;;;20.93;6.60;;;;;;;6.19;51.39;99202.47;8451270;28;20234;-69
2022/01/21 10:42:46;;;;;;;14.80;5.30;;;;;;;5.84;51.81;99193.19;8451341;28;20230;-69
2022/01/21 10:47:03;;;;;;;16.10;5.97;;;;;;;6.02;52.01;99187.97;8451774;28;20422;-69
2022/01/21 10:51:19;;;;;;;19.37;6.47;;;;;;;6.14;50.95;99188.78;8478974;28;20234;-69
2022/01/21 10:55:30;;;;;;;13.03;5.50;;;;;;;6.01;51.31;99198.28;8485305;27;20230;-68
2022/01/21 11:00:02;;;;;;;13.30;5.27;;;;;;;5.99;51.69;99203.41;8484309;28;20221;-68
2022/01/21 11:04:10;;;;;;;19.40;5.70;;;;;;;6.01;51.99;99209.41;8449562;28;20437;-69
2022/01/21 11:08:14;;;;;;;15.00;5.20;;;;;;;6.10;52.04;99197.38;8484140;28;20225;-68
2022/01/21 11:12:18;;;;;;;17.43;5.67;;;;;;;5.87;53.08;99193.19;8484245;28;20229;-68
2022/01/21 11:16:24;;;;;;;15.97;5.70;;;;;;;6.10;51.77;99179.38;8484215;27;20536;-69
2022/01/21 11:20:55;;;;;;;11.50;4.80;;;;;;;6.35;51.99;99175.75;8483710;28;20395;-68
2022/01/21 11:24:59;;;;;;;13.83;5.70;;;;;;;6.20;52.12;99168.97;8484023;28;20533;-68
2022/01/21 11:29:04;;;;;;;15.40;5.17;;;;;;;6.10;52.37;99161.38;8483734;28;20544;-69
2022/01/21 11:33:08;;;;;;;14.03;5.40;;;;;;;6.01;52.69;99146.84;8483848;27;20229;-70
2022/01/21 11:37:11;;;;;;;14.10;4.97;;;;;;;6.06;52.42;99138.22;8483781;28;20225;-70
2022/01/21 11:41:16;;;;;;;15.33;5.67;;;;;;;6.00;52.30;99133.13;8482770;28;20233;-68
2022/01/21 11:45:32;;;;;;;15.63;5.90;;;;;;;5.99;53.11;99139.13;8483111;28;20225;-68
2022/01/21 11:49:35;;;;;;;12.90;5.40;;;;;;;6.24;51.82;99134.69;8482257;28;20233;-70
2022/01/21 11:53:45;;;;;;;11.90;6.00;;;;;;;6.37;52.00;99130.25;8482838;28;20235;-70
2022/01/21 11:57:49;;;;;;;15.07;6.20;;;;;;;6.29;51.76;99133.78;8482819;28;20551;-69
2022/01/21 12:01:52;;;;;;;17.50;6.40;;;;;;;6.41;51.86;99134.50;8468542;27;20543;-69
2022/01/21 12:05:56;;;;;;;16.93;5.80;;;;;;;6.18;51.89;99142.44;8448852;28;20465;-69
2022/01/21 12:10:00;;;;;;;15.60;5.80;;;;;;;6.43;51.70;99119.06;8448528;28;20229;-69
2022/01/21 12:14:51;;;;;;;12.50;5.80;;;;;;;6.20;52.56;99126.97;8448597;28;20432;-70
2022/01/21 12:19:18;;;;;;;16.43;5.50;;;;;;;6.51;51.13;99124.13;8448233;28;20521;-69
2022/01/21 12:23:27;;;;;;;14.37;5.27;;;;;;;6.32;51.85;99139.75;8448709;28;20230;-68
2022/01/21 12:27:35;;;;;;;12.60;5.40;;;;;;;5.97;52.80;99122.88;8448781;28;20259;-70
2022/01/21 12:32:00;;;;;;;15.10;5.50;;;;;;;6.02;52.39;99115.13;8447998;28;20230;-70
2022/01/21 12:36:04;;;;;;;16.20;6.27;;;;;;;5.55;53.46;99108.56;8448078;28;20221;-69
2022/01/21 12:40:08;;;;;;;10.90;5.40;;;;;;;5.68;54.43;99107.63;8447347;28;20533;-69
2022/01/21 12:44:12;;;;;;;15.33;5.50;;;;;;;5.80;53.68;99097.25;8447298;28;20226;-69
2022/01/21 12:48:33;;;;;;;11.73;5.33;;;;;;;6.04;52.66;99109.09;8450630;28;20243;-69
2022/01/21 12:52:47;;;;;;;13.80;5.53;;;;;;;5.92;53.25;99111.75;8443217;28;20410;-70
2022/01/21 12:56:57;;;;;;;13.67;5.53;;;;;;;5.97;53.25;99107.44;8446035;28;20242;-69
2022/01/21 13:01:02;;;;;;;14.33;6.00;;;;;;;6.23;52.59;99112.38;8446285;28;20384;-69
2022/01/21 13:05:12;;;;;;;11.13;5.63;;;;;;;6.11;52.60;99098.75;8445615;28;20291;-69
2022/01/21 13:09:21;;;;;;;12.67;5.90;;;;;;;6.26;52.67;99093.47;8443937;28;20236;-70
2022/01/21 13:13:35;;;;;;;13.57;6.47;;;;;;;5.84;54.09;99105.78;8445435;28;20228;-69
2022/01/21 13:17:38;;;;;;;10.37;6.17;;;;;;;6.21;53.43;99102.97;8443758;28;20226;-69
2022/01/21 13:21:46;;;;;;;20.83;8.47;;;;;;;6.40;53.31;99094.22;8446130;28;20233;-69
2022/01/21 13:25:49;;;;;;;15.93;7.40;;;;;;;6.16;53.93;99107.31;8446344;28;20241;-69
2022/01/21 13:29:58;;;;;;;14.77;6.77;;;;;;;6.31;53.63;99096.88;8446383;28;20245;-69
2022/01/21 13:34:11;;;;;;;14.70;6.97;;;;;;;7.16;74.57;99091.69;8446192;28;20241;-69
2022/01/21 13:38:17;;;;;;;18.73;7.07;;;;;;;9.30;60.23;99097.59;8446156;28;20234;-69
2022/01/21 13:42:24;;;;;;;11.90;6.57;;;;;;;7.53;52.04;99098.06;8446886;28;20232;-69
2022/01/21 13:46:28;;;;;;;14.03;7.00;;;;;;;6.92;53.31;99103.13;8480150;28;20225;-69
2022/01/21 13:50:32;;;;;;;13.57;7.40;;;;;;;6.77;53.92;99104.13;8456284;28;20416;-69
2022/01/21 13:54:44;;;;;;;11.13;6.87;;;;;;;6.48;55.12;99101.03;8446147;28;20230;-69
2022/01/21 13:58:48;;;;;;;15.77;7.43;;;;;;;6.25;54.55;99120.09;8445339;28;20226;-69
2022/01/21 14:03:01;;;;;;;14.00;7.40;;;;;;;6.09;56.55;99119.34;8444691;28;20242;-70
2022/01/21 14:07:21;;;;;;;11.47;7.23;;;;;;;6.18;56.46;99121.00;8446839;28;20232;-71
2022/01/21 14:11:28;;;;;;;12.80;7.40;;;;;;;5.96;57.46;99120.31;8448184;28;20234;-71
2022/01/21 14:15:31;;;;;;;12.40;7.10;;;;;;;6.09;57.47;99134.78;8450530;28;20222;-69
2022/01/21 14:19:43;;;;;;;13.73;7.77;;;;;;;6.10;58.08;99123.63;8450704;28;20556;-69
2022/01/21 14:23:47;;;;;;;12.10;6.80;;;;;;;6.08;57.95;99109.94;8448454;28;20226;-70
2022/01/21 14:27:52;;;;;;;15.87;6.87;;;;;;;5.96;57.61;99112.59;8451625;28;20234;-70
2022/01/21 14:32:00;;;;;;;10.90;6.60;;;;;;;5.87;58.17;99110.91;8451163;28;20240;-69
2022/01/21 14:36:12;;;;;;;16.37;7.40;;;;;;;5.54;58.72;99127.38;8451290;28;20233;-68
2022/01/21 14:40:18;;;;;;;15.70;7.70;;;;;;;5.62;58.56;99130.78;8451201;28;20533;-69
2022/01/21 14:44:44;;;;;;;13.57;7.77;;;;;;;5.59;58.67;99139.34;8459304;28;20232;-70
2022/01/21 14:48:56;;;;;;;12.53;7.33;;;;;;;5.67;59.40;99140.19;8484541;27;20234;-69
2022/01/21 14:52:59;;;;;;;12.60;7.87;;;;;;;5.46;59.99;99140.28;8484189;27;20236;-71
2022/01/21 14:57:04;;;;;;;12.30;7.63;;;;;;;5.78;59.19;99139.25;8484027;28;20314;-70
2022/01/21 15:01:11;;;;;;;16.60;8.20;;;;;;;5.93;58.85;99144.28;8484248;28;20233;-70
2022/01/21 15:05:15;;;;;;;15.33;8.20;;;;;;;5.87;59.02;99150.34;8484638;28;20233;-69
2022/01/21 15:09:29;;;;;;;18.23;9.10;;;;;;;5.66;59.34;99151.31;8484224;28;20233;-69
2022/01/21 15:17:55;;;;;;;14.40;9.37;;;;;;;5.54;59.36;99159.09;8483178;28;20524;-69
2022/01/21 15:21:59;;;;;;;18.20;8.93;;;;;;;5.71;58.40;99156.41;8483694;27;20229;-70
2022/01/21 15:26:04;;;;;;;16.00;9.63;;;;;;;5.65;58.84;99151.31;8472525;28;20230;-73
2022/01/21 15:30:08;;;;;;;14.57;7.27;;;;;;;5.47;59.02;99154.84;8448868;28;20230;-72
2022/01/21 15:34:13;;;;;;;16.67;7.73;;;;;;;5.22;59.63;99151.53;8446011;28;20563;-75
2022/01/21 15:38:17;;;;;;;15.93;8.30;;;;;;;5.50;59.44;99167.66;8448023;28;20467;-73
2022/01/21 15:42:20;;;;;;;14.27;9.30;;;;;;;5.53;59.40;99169.38;8446089;28;20327;-73
2022/01/21 15:46:23;;;;;;;17.77;10.97;;;;;;;5.74;58.55;99169.25;8448452;28;20230;-73
2022/01/21 15:50:28;;;;;;;23.33;13.97;;;;;;;5.79;58.30;99174.41;8446885;28;20264;-73
2022/01/21 15:54:31;;;;;;;17.07;11.13;;;;;;;5.78;58.54;99165.81;8445925;28;20218;-72
2022/01/21 15:58:34;;;;;;;22.27;13.23;;;;;;;5.74;58.91;99168.41;8447144;28;20230;-73
2022/01/21 16:02:38;;;;;;;14.97;8.43;;;;;;;5.75;58.54;99167.53;8446582;28;20236;-68
2022/01/21 16:06:43;;;;;;;15.70;8.07;;;;;;;5.82;58.08;99170.06;8445331;28;20418;-68
2022/01/21 16:10:48;;;;;;;15.63;8.13;;;;;;;5.84;58.19;99180.34;8446264;28;20226;-69
2022/01/21 16:14:54;;;;;;;15.47;8.00;;;;;;;5.77;58.19;99169.25;8445931;28;20225;-70
2022/01/21 16:18:57;;;;;;;16.00;8.43;;;;;;;5.70;58.31;99171.88;8446538;28;20254;-69
2022/01/21 16:23:01;;;;;;;17.10;7.80;;;;;;;5.91;58.19;99173.47;8444788;28;20229;-70
2022/01/21 16:27:24;;;;;;;13.43;8.20;;;;;;;5.79;58.35;99169.25;8446027;28;20225;-69
2022/01/21 16:31:28;;;;;;;14.13;8.80;;;;;;;5.65;58.91;99166.72;8445268;28;20560;-69
2022/01/21 16:35:32;;;;;;;15.47;8.50;;;;;;;5.49;59.82;99160.84;8445673;28;20230;-70
2022/01/21 16:39:36;;;;;;;19.13;9.30;;;;;;;5.58;59.87;99152.22;8445790;28;20230;-69
2022/01/21 16:43:39;;;;;;;18.80;9.60;;;;;;;5.43;60.55;99156.56;8445564;28;20473;-70
2022/01/21 16:47:44;;;;;;;15.63;9.17;;;;;;;5.64;59.86;99163.31;8445786;28;20551;-69
2022/01/21 16:51:52;;;;;;;17.27;9.17;;;;;;;5.70;59.48;99165.00;8445119;28;20263;-69
2022/01/21 16:55:56;;;;;;;16.07;9.33;;;;;;;5.73;59.21;99167.56;8446725;28;20236;-69
2022/01/21 16:59:59;;;;;;;16.70;10.43;;;;;;;6.22;57.52;99162.09;8444884;28;20406;-65
2022/01/21 17:04:03;;;;;;;14.93;9.27;;;;;;;5.85;58.59;99164.06;8446533;28;20256;-67
2022/01/21 17:08:07;;;;;;;14.97;9.00;;;;;;;5.93;58.63;99170.00;8444224;28;20239;-66
2022/01/21 17:12:12;;;;;;;17.07;9.73;;;;;;;5.83;59.15;99160.66;8446468;28;20234;-66
2022/01/21 17:16:15;;;;;;;22.40;13.63;;;;;;;5.83;58.27;99161.50;8446596;28;20303;-65
2022/01/21 17:20:18;;;;;;;15.17;9.20;;;;;;;5.78;59.07;99170.09;8446319;28;20230;-65
2022/01/21 17:24:21;;;;;;;17.13;9.90;;;;;;;5.91;58.85;99176.88;8446055;28;20226;-66
2022/01/21 17:28:26;;;;;;;15.17;10.63;;;;;;;5.85;58.78;99170.06;8445978;28;20552;-67
2022/01/21 17:32:29;;;;;;;14.97;9.13;;;;;;;5.94;58.51;99173.41;8479860;28;20276;-66
2022/01/21 17:36:32;;;;;;;18.47;9.20;;;;;;;5.79;58.30;99167.53;8454903;28;20230;-66
2022/01/21 17:40:36;;;;;;;17.40;9.30;;;;;;;5.58;58.46;99170.19;8448519;28;20237;-65
2022/01/21 17:44:41;;;;;;;17.20;9.90;;;;;;;5.84;58.43;99162.34;8452462;28;20245;-66
2022/01/21 17:48:44;;;;;;;16.60;9.23;;;;;;;5.72;58.37;99173.56;8451753;28;20289;-66
2022/01/21 17:52:47;;;;;;;16.10;8.47;;;;;;;5.70;58.00;99166.72;8451922;28;20234;-66
2022/01/21 17:56:51;;;;;;;15.07;7.63;;;;;;;5.76;58.11;99164.13;8452147;28;20237;-66
2022/01/21 18:00:55;;;;;;;14.03;7.80;;;;;;;5.57;58.66;99166.78;8452228;28;20403;-66
2022/01/21 18:04:59;;;;;;;17.53;10.60;;;;;;;5.72;58.07;99170.16;8451691;28;20287;-65
2022/01/21 18:09:08;;;;;;;17.33;8.70;;;;;;;5.63;58.52;99171.03;8451800;28;20585;-65
2022/01/21 18:13:18;;;;;;;13.40;7.73;;;;;;;5.62;58.64;99180.47;8428214;28;20234;-66
2022/01/21 18:17:23;;;;;;;16.00;8.20;;;;;;;5.56;58.38;99177.06;8452166;28;20658;-65
2022/01/21 18:21:27;;;;;;;13.80;7.50;;;;;;;5.75;58.13;99172.69;8451846;28;20236;-65
2022/01/21 18:25:30;;;;;;;12.83;6.87;;;;;;;5.51;58.39;99181.38;8451447;28;20401;-65
2022/01/21 18:29:33;;;;;;;13.57;7.73;;;;;;;5.31;59.34;99174.59;8450929;28;20249;-66
2022/01/21 18:33:37;;;;;;;12.27;7.77;;;;;;;5.47;58.47;99171.09;8485385;28;20237;-66
2022/01/21 18:37:40;;;;;;;13.97;7.30;;;;;;;5.31;59.19;99166.03;8485092;27;20236;-65
2022/01/21 18:41:45;;;;;;;16.50;7.43;;;;;;;5.49;59.33;99163.41;8484542;28;20237;-65
2022/01/21 18:45:52;;;;;;;14.53;7.50;;;;;;;5.24;59.42;99163.50;8484652;28;20233;-65
2022/01/21 18:49:58;;;;;;;13.03;7.60;;;;;;;5.37;59.91;99174.59;8484665;27;20233;-65
2022/01/21 18:54:01;;;;;;;15.23;9.20;;;;;;;5.40;59.91;99161.72;8483565;28;20421;-65
2022/01/21 18:58:05;;;;;;;16.90;8.60;;;;;;;5.33;60.18;99164.31;8484302;27;20424;-65
2022/01/21 19:02:08;;;;;;;15.67;8.07;;;;;;;5.22;59.92;99175.50;8483991;28;20420;-65
2022/01/21 19:06:13;;;;;;;11.97;7.20;;;;;;;5.07;60.26;99184.09;8483815;28;20245;-66
2022/01/21 19:10:18;;;;;;;17.47;8.30;;;;;;;5.41;59.98;99190.84;8483874;28;20225;-65
2022/01/21 19:14:21;;;;;;;12.77;7.90;;;;;;;5.33;60.40;99203.72;8484076;28;20229;-65
2022/01/21 19:18:24;;;;;;;13.23;6.90;;;;;;;5.60;58.82;99201.91;8483755;28;20226;-65
2022/01/21 19:22:32;;;;;;;12.27;6.77;;;;;;;5.29;59.62;99200.31;8483772;28;20225;-65
2022/01/21 19:26:52;;;;;;;13.47;7.17;;;;;;;5.32;59.48;99211.44;8482880;27;20248;-66
2022/01/21 19:30:57;;;;;;;12.00;6.70;;;;;;;5.16;59.86;99213.16;8483374;28;20229;-65
2022/01/21 19:35:00;;;;;;;12.27;6.70;;;;;;;5.13;60.45;99214.03;8482496;28;20229;-66
2022/01/21 19:39:04;;;;;;;12.50;6.50;;;;;;;5.13;60.34;99208.91;8483030;27;20573;-66
2022/01/21 19:43:08;;;;;;;12.40;6.50;;;;;;;5.11;60.47;99205.50;8483121;28;20229;-68
2022/01/21 19:47:11;;;;;;;18.80;8.23;;;;;;;7.54;80.60;99208.91;8482936;28;20229;-64
2022/01/21 19:51:15;;;;;;;14.23;5.90;;;;;;;9.11;63.14;99203.91;8482565;28;20241;-64
2022/01/21 19:55:20;;;;;;;11.80;6.23;;;;;;;7.14;56.21;99204.19;8455625;28;20229;-69
2022/01/21 19:59:34;;;;;;;11.93;6.37;;;;;;;6.44;57.49;99214.25;8448398;28;20226;-69
2022/01/21 20:12:28;;;;;;;14.03;6.57;;;;;;;6.04;58.58;99221.41;8448629;28;20233;-68